createdAt,value
2018-09-05T00:02:23.912Z,7.00
2018-09-05T00:07:16.437Z,7.07
2018-09-05T00:12:09.075Z,7.27
2018-09-05T00:17:02.054Z,6.70
2018-09-05T00:21:54.867Z,6.50
2018-09-05T00:26:47.534Z,7.13
2018-09-05T00:31:40.096Z,7.30
2018-09-05T00:36:39.566Z,7.43
2018-09-05T00:41:32.142Z,7.30
2018-09-05T00:46:24.711Z,7.33
2018-09-05T00:51:17.409Z,7.40
2018-09-05T00:56:09.945Z,7.87
2018-09-05T01:01:02.508Z,7.27
2018-09-05T01:05:55.315Z,7.27
2018-09-05T01:10:48.102Z,7.63
2018-09-05T01:15:41.215Z,7.37
2018-09-05T01:20:33.807Z,8.17
2018-09-05T01:25:26.500Z,7.63
2018-09-05T01:30:19.120Z,7.70
2018-09-05T01:35:11.714Z,8.50
2018-09-05T01:40:04.487Z,9.67
2018-09-05T01:44:57.144Z,10.80
2018-09-05T01:49:49.778Z,12.20
2018-09-05T01:54:42.373Z,14.53
2018-09-05T01:59:34.986Z,13.43
2018-09-05T02:04:27.599Z,14.30
2018-09-05T02:09:20.210Z,13.87
2018-09-05T02:14:12.910Z,14.80
2018-09-05T02:19:05.518Z,15.03
2018-09-05T02:23:58.170Z,16.00
2018-09-05T02:28:51.154Z,16.53
2018-09-05T02:33:43.838Z,18.43
2018-09-05T02:38:36.520Z,18.20
2018-09-05T02:43:34.904Z,18.83
2018-09-05T02:48:27.516Z,20.17
2018-09-05T02:53:20.288Z,21.93
2018-09-05T02:58:12.814Z,20.87
2018-09-05T03:03:05.773Z,21.67
2018-09-05T03:07:58.379Z,23.77
2018-09-05T03:12:50.960Z,23.90
2018-09-05T03:17:43.568Z,22.30
2018-09-05T03:22:36.195Z,22.43
2018-09-05T03:27:28.762Z,21.17
2018-09-05T03:32:21.521Z,22.00
2018-09-05T03:37:14.092Z,22.63
2018-09-05T03:42:06.817Z,23.33
2018-09-05T03:46:59.393Z,22.13
2018-09-05T03:51:52.024Z,22.67
2018-09-05T03:56:44.541Z,23.20
2018-09-05T04:01:37.159Z,24.17
2018-09-05T04:06:29.742Z,22.70
2018-09-05T04:11:22.351Z,23.43
2018-09-05T04:16:14.918Z,22.93
2018-09-05T04:21:07.502Z,23.77
2018-09-05T04:26:00.164Z,24.17
2018-09-05T04:30:52.885Z,24.17
2018-09-05T04:35:45.451Z,22.93
2018-09-05T04:40:38.067Z,22.63
2018-09-05T04:45:30.713Z,22.33
2018-09-05T04:50:23.386Z,22.73
2018-09-05T04:55:15.981Z,24.80
2018-09-05T05:00:08.618Z,23.03
2018-09-05T05:05:01.161Z,22.27
2018-09-05T05:09:53.982Z,22.17
2018-09-05T05:14:46.719Z,23.33
2018-09-05T05:19:39.306Z,22.40
2018-09-05T05:24:31.850Z,22.13
2018-09-05T05:29:24.550Z,22.43
2018-09-05T05:34:17.696Z,18.53
2018-09-05T05:39:11.235Z,19.10
2018-09-05T05:44:03.986Z,17.40
2018-09-05T05:48:56.658Z,16.70
2018-09-05T05:53:49.281Z,16.20
2018-09-05T05:58:41.984Z,16.37
2018-09-05T06:03:34.739Z,14.90
2018-09-05T06:08:31.818Z,16.60
2018-09-05T06:13:24.489Z,15.63
2018-09-05T06:18:17.113Z,14.80
2018-09-05T06:23:09.686Z,13.63
2018-09-05T06:28:02.243Z,13.93
2018-09-05T06:32:54.939Z,13.13
2018-09-05T06:37:47.499Z,13.10
2018-09-05T06:42:40.115Z,13.00
2018-09-05T06:47:32.839Z,11.80
2018-09-05T06:52:25.443Z,12.13
2018-09-05T06:57:18.396Z,11.60
2018-09-05T07:02:11.021Z,9.63
2018-09-05T07:07:03.767Z,9.57
2018-09-05T07:11:56.362Z,10.87
2018-09-05T07:16:49.059Z,9.70
2018-09-05T07:21:41.588Z,10.07
2018-09-05T07:26:34.177Z,8.87
2018-09-05T07:31:26.788Z,8.50
2018-09-05T07:36:19.389Z,9.70
2018-09-05T07:41:12.054Z,9.33
2018-09-05T07:46:05.042Z,8.87
2018-09-05T07:50:57.772Z,9.13
2018-09-05T07:55:50.467Z,7.87
2018-09-05T08:00:43.205Z,8.17
2018-09-05T08:05:35.827Z,7.13
2018-09-05T08:10:28.432Z,7.30
2018-09-05T08:15:20.991Z,6.70
2018-09-05T08:20:13.705Z,8.07
2018-09-05T08:25:06.547Z,6.67
2018-09-05T08:29:59.236Z,7.87
2018-09-05T08:34:52.659Z,7.57
2018-09-05T08:39:45.736Z,7.10
2018-09-05T08:44:38.295Z,6.97
2018-09-05T08:49:30.865Z,12.17
2018-09-05T08:54:23.603Z,7.30
2018-09-05T08:59:16.195Z,6.33
2018-09-05T09:04:08.760Z,5.70
2018-09-05T09:09:01.424Z,6.50
2018-09-05T09:13:53.969Z,6.83
2018-09-05T09:18:46.648Z,6.17
2018-09-05T09:23:39.347Z,8.27
2018-09-05T09:28:31.914Z,6.47
2018-09-05T09:33:24.857Z,8.37
2018-09-05T09:38:18.036Z,7.77
2018-09-05T09:43:10.783Z,6.90
2018-09-05T09:48:03.886Z,6.30
2018-09-05T09:52:56.499Z,6.80
2018-09-05T09:57:49.246Z,7.07
2018-09-05T10:02:47.536Z,6.43
2018-09-05T10:07:45.753Z,6.70
2018-09-05T10:12:46.996Z,6.00
2018-09-05T10:17:39.899Z,6.63
2018-09-05T10:22:32.836Z,6.83
2018-09-05T10:27:26.283Z,7.67
2018-09-05T10:32:18.911Z,6.60
2018-09-05T10:37:11.739Z,6.23
2018-09-05T10:42:04.950Z,6.60
2018-09-05T10:46:57.534Z,6.40
2018-09-05T10:51:54.388Z,6.57
2018-09-05T10:56:47.004Z,5.90
2018-09-05T11:01:39.704Z,6.50
2018-09-05T11:06:32.317Z,6.37
2018-09-05T11:11:24.966Z,6.17
2018-09-05T11:16:17.742Z,6.13
2018-09-05T11:21:10.398Z,6.33
2018-09-05T11:26:03.048Z,6.30
2018-09-05T11:30:55.684Z,5.43
2018-09-05T11:35:48.262Z,5.30
2018-09-05T11:40:40.866Z,5.00
2018-09-05T11:45:33.530Z,6.17
2018-09-05T11:50:26.115Z,4.87
2018-09-05T11:55:18.767Z,5.20
2018-09-05T12:00:11.349Z,4.83
2018-09-05T12:05:04.025Z,4.73
2018-09-05T12:09:56.617Z,5.10
2018-09-05T12:14:49.190Z,4.97
2018-09-05T12:19:41.786Z,5.23
2018-09-05T12:25:08.981Z,6.00
2018-09-05T12:30:01.719Z,4.97
2018-09-05T12:34:54.470Z,5.97
2018-09-05T12:39:47.148Z,5.87
2018-09-05T12:44:39.804Z,5.57
2018-09-05T12:49:32.410Z,5.30
2018-09-05T12:54:25.106Z,5.23
2018-09-05T12:59:17.762Z,5.30
2018-09-05T13:04:10.391Z,5.80
2018-09-05T13:09:05.839Z,5.23
2018-09-05T13:13:58.785Z,5.33
2018-09-05T13:18:51.294Z,5.60
2018-09-05T13:23:43.987Z,5.90
2018-09-05T13:28:36.758Z,5.60
2018-09-05T13:33:29.335Z,6.10
2018-09-05T13:38:22.086Z,5.63
2018-09-05T13:43:14.830Z,5.70
2018-09-05T13:48:07.505Z,5.90
2018-09-05T13:53:00.109Z,6.50
2018-09-05T13:57:52.659Z,5.77
2018-09-05T14:02:46.412Z,5.43
2018-09-05T14:07:38.970Z,5.90
2018-09-05T14:12:31.576Z,5.77
2018-09-05T14:17:24.283Z,5.37
2018-09-05T14:22:16.900Z,5.43
2018-09-05T14:27:09.694Z,5.93
2018-09-05T14:32:02.285Z,6.77
2018-09-05T14:36:54.916Z,6.13
2018-09-05T14:41:47.518Z,6.37
2018-09-05T14:46:40.171Z,8.77
2018-09-05T14:51:33.014Z,6.20
2018-09-05T14:56:25.735Z,5.97
2018-09-05T15:01:18.500Z,5.60
2018-09-05T15:06:11.161Z,5.80
2018-09-05T15:11:03.887Z,5.70
2018-09-05T15:15:56.576Z,5.97
2018-09-05T15:20:49.232Z,6.00
2018-09-05T15:25:42.185Z,5.70
2018-09-05T15:30:34.819Z,5.53
2018-09-05T15:35:27.398Z,5.80
2018-09-05T15:40:20.084Z,5.50
2018-09-05T15:45:12.763Z,5.93
2018-09-05T15:50:05.497Z,5.50
2018-09-05T15:54:57.963Z,5.90
2018-09-05T15:59:51.104Z,5.20
2018-09-05T16:04:43.767Z,5.20
2018-09-05T16:09:36.339Z,5.83
2018-09-05T16:14:29.098Z,5.10
2018-09-05T16:19:21.678Z,5.40
2018-09-05T16:24:14.243Z,5.43
2018-09-05T16:29:06.896Z,4.70
2018-09-05T16:33:59.499Z,5.10
2018-09-05T16:38:52.128Z,5.10
2018-09-05T16:43:44.746Z,5.07
2018-09-05T16:48:37.469Z,5.27
2018-09-05T16:53:30.039Z,4.77
2018-09-05T16:58:22.693Z,5.40
2018-09-05T17:03:15.414Z,5.03
2018-09-05T17:08:07.963Z,4.90
2018-09-05T17:13:00.520Z,5.10
2018-09-05T17:17:53.176Z,4.97
2018-09-05T17:22:45.764Z,6.20
2018-09-05T17:27:38.299Z,4.50
2018-09-05T17:32:30.895Z,4.83
2018-09-05T17:37:23.451Z,5.77
2018-09-05T17:42:16.008Z,5.47
2018-09-05T17:47:08.627Z,5.23
2018-09-05T17:52:01.200Z,5.53
2018-09-05T17:56:53.794Z,5.70
2018-09-05T18:01:46.427Z,5.80
2018-09-05T18:06:39.058Z,5.10
2018-09-05T18:11:31.700Z,5.13
2018-09-05T18:16:24.375Z,5.50
2018-09-05T18:21:17.011Z,5.77
2018-09-05T18:26:09.920Z,5.07
2018-09-05T18:31:02.535Z,5.40
2018-09-05T18:35:55.798Z,5.60
2018-09-05T18:40:48.326Z,6.23
2018-09-05T18:45:40.985Z,5.93
2018-09-05T18:50:33.664Z,6.40
2018-09-05T18:55:26.260Z,6.50
2018-09-05T19:00:18.867Z,6.47
2018-09-05T19:05:11.577Z,5.60
2018-09-05T19:10:04.186Z,5.67
2018-09-05T19:14:56.818Z,6.03
2018-09-05T19:19:49.392Z,6.60
2018-09-05T19:24:42.159Z,5.97
2018-09-05T19:29:34.744Z,6.57
2018-09-05T19:34:27.334Z,6.70
2018-09-05T19:39:19.915Z,6.73
2018-09-05T19:44:12.798Z,6.70
2018-09-05T19:49:05.408Z,7.00
2018-09-05T19:53:57.950Z,6.90
2018-09-05T19:58:50.551Z,7.77
2018-09-05T20:03:43.103Z,6.37
2018-09-05T20:08:35.817Z,7.10
2018-09-05T20:13:28.448Z,7.40
2018-09-05T20:18:21.203Z,6.63
2018-09-05T20:23:13.812Z,7.40
2018-09-05T20:28:06.501Z,7.17
2018-09-05T20:32:59.117Z,7.10
2018-09-05T20:37:51.674Z,7.13
2018-09-05T20:42:44.457Z,7.37
2018-09-05T20:47:37.049Z,7.23
2018-09-05T20:52:29.655Z,7.50
2018-09-05T20:57:22.282Z,7.63
2018-09-05T21:02:14.839Z,7.23
2018-09-05T21:07:07.454Z,8.33
2018-09-05T21:12:00.232Z,7.47
2018-09-05T21:16:52.882Z,8.13
2018-09-05T21:21:45.432Z,8.13
2018-09-05T21:26:38.218Z,7.40
2018-09-05T21:31:30.699Z,7.00
2018-09-05T21:36:23.353Z,7.43
2018-09-05T21:41:15.908Z,7.83
2018-09-05T21:46:08.528Z,7.80
2018-09-05T21:51:01.121Z,7.73
2018-09-05T21:55:53.768Z,7.40
2018-09-05T22:00:47.324Z,7.07
2018-09-05T22:05:39.886Z,7.30
2018-09-05T22:10:32.397Z,7.30
2018-09-05T22:15:24.967Z,7.47
2018-09-05T22:20:17.476Z,7.40
2018-09-05T22:25:10.013Z,7.37
2018-09-05T22:30:02.557Z,7.60
2018-09-05T22:34:55.402Z,8.35
2018-09-05T22:39:47.962Z,9.20
2018-09-05T22:44:58.237Z,9.40
2018-09-05T22:51:13.289Z,9.37
2018-09-05T22:56:37.868Z,9.10
2018-09-05T23:01:53.843Z,7.43
2018-09-05T23:07:03.819Z,7.83
2018-09-05T23:12:23.034Z,8.30
2018-09-05T23:18:33.060Z,8.77
2018-09-05T23:23:43.219Z,9.17
2018-09-05T23:28:36.549Z,9.07
2018-09-05T23:33:29.176Z,8.93
2018-09-05T23:38:21.812Z,12.87
2018-09-05T23:43:14.527Z,10.77
2018-09-05T23:48:07.195Z,10.00
2018-09-05T23:52:59.826Z,9.97
2018-09-05T23:57:52.411Z,9.77
